San Diego International Airport San Diego US
ICAO: KSAN
IATA: SAN
Category: Large
Scheduled Services: Yes

Elevation: 17 ft
TransAlt. 18000 ft.

Airport Communications:
SOCAL APP/DEP:119.6
ATIS:134.8
CLNC DEL:125.9
GND:123.9
CG:157.15
CG:898.4
LINDBERGH TWR:118.3
UNICOM:122.95

KSAN Zoom In..

If you have problems with the map follow the link
https://www.worldairports.se/pages/airport.php?
ICAO=KSAN

Runways:

(A) RW 09 length 9400 ft width 200 ft
ILS 111.55 / hdg 92

(B) RW 27 length 9400 ft width 200 ft
LOC 110.90 / hdg 272

Location; KSAN
Day. 14 / Time. 17.51 Zulu
* Altimeter: 30.03
* Temperature: 17° c. 62.6°f.
* Wind from: 170° Speed 04 kn.
Dewpoint: 13° c.
Visibility: 7 Statute Miles.
Clouds: Broken 2600 ft.

KSAN 141751Z 17004KT 7SM BKN026 17/13 A3003 RMK AO2 SLP169 T01720133 10172 20156 51006


Wind From 170°
Speed 04 kn.

 
 
jpsmedia worldairports.se 2019   terms of use